Aviation Digital Data Service (ADDS)

Output produced by METARs form (2303 UTC 15 February 2019)
found at http://www.aviationweather.gov/metar/data/
 
METAR text: SBKP 152300Z 32007KT 300V040 9000 -TSRA FEW017 BKN027 FEW033CB BKN070 22/21 Q1010 RERA
Conditions at: SBKP (CAMPINAS/VIRACOP, BR) observed 2300 UTC 15 February 2019
Temperature: 22.0°C (72°F)
Dewpoint: 21.0°C (70°F) [RH = 94%]
Pressure (altimeter): 29.82 inches Hg (1010.0 mb)
Winds: from the NW (320 degrees) at 8 MPH (7 knots; 3.6 m/s)
Visibility: 6 miles ( 9 km)
Ceiling: 2700 feet AGL
Clouds: few clouds at 1700 feet AGL
broken clouds at 2700 feet AGL
few clouds at 3300 feet AGL
broken clouds at 7000 feet AGL
Weather: -TSRA  (light rain associated with thunderstorm(s))

METAR text: SBKP 152230Z 32005KT 290V030 9999 -TSRA BKN025 FEW033CB BKN060 OVC100 22/20 Q1009 RERA
Conditions at: SBKP (CAMPINAS/VIRACOP, BR) observed 2230 UTC 15 February 2019
Temperature: 22.0°C (72°F)
Dewpoint: 20.0°C (68°F) [RH = 88%]
Pressure (altimeter): 29.79 inches Hg (1009.0 mb)
Winds: from the NW (320 degrees) at 6 MPH (5 knots; 2.6 m/s)
Visibility: 6 or more miles (10+ km)
Ceiling: 2500 feet AGL
Clouds: broken clouds at 2500 feet AGL
few clouds at 3300 feet AGL
broken clouds at 6000 feet AGL
overcast cloud deck at 10000 feet AGL
Weather: -TSRA  (light rain associated with thunderstorm(s))

METAR text: SBKP 152210Z 35013KT 4000 +TSRA BR SCT025 BKN033 FEW035CB BKN06 0 22/20 Q1009
Conditions at: SBKP (CAMPINAS/VIRACOP, BR) observed 2210 UTC 15 February 2019
Temperature: 22.0°C (72°F)
Dewpoint: 20.0°C (68°F) [RH = 88%]
Pressure (altimeter): 29.79 inches Hg (1009.0 mb)
Winds: from the N (350 degrees) at 15 MPH (13 knots; 6.7 m/s)
Visibility: 2.49 miles (4.01 km)
Ceiling: 3300 feet AGL
Clouds: scattered clouds at 2500 feet AGL
broken clouds at 3300 feet AGL
few clouds at 3500 feet AGL
Weather: +TSRA BR  (heavy rain associated with thunderstorm(s), mist)

METAR text: SBKP 152200Z 35009KT 9999 -RA VCTS BKN033 FEW035CB BKN060 OVC09 0 24/20 Q1009
Conditions at: SBKP (CAMPINAS/VIRACOP, BR) observed 2200 UTC 15 February 2019
Temperature: 24.0°C (75°F)
Dewpoint: 20.0°C (68°F) [RH = 78%]
Pressure (altimeter): 29.79 inches Hg (1009.0 mb)
Winds: from the N (350 degrees) at 10 MPH (9 knots; 4.6 m/s)
Visibility: 6 or more miles (10+ km)
Ceiling: 3300 feet AGL
Clouds: broken clouds at 3300 feet AGL
few clouds at 3500 feet AGL
broken clouds at 6000 feet AGL
Weather: -RA VCTS  (light rain, thunderstorm in vicinity)

METAR text: SBKP 152100Z 34008KT 9999 BKN040 FEW045TCU BKN080 25/19 Q1009 R ETS
Conditions at: SBKP (CAMPINAS/VIRACOP, BR) observed 2100 UTC 15 February 2019
Temperature: 25.0°C (77°F)
Dewpoint: 19.0°C (66°F) [RH = 69%]
Pressure (altimeter): 29.79 inches Hg (1009.0 mb)
Winds: from the NNW (340 degrees) at 9 MPH (8 knots; 4.1 m/s)
Visibility: 6 or more miles (10+ km)
Ceiling: 4000 feet AGL
Clouds: broken clouds at 4000 feet AGL
few clouds at 4500 feet AGL
broken clouds at 8000 feet AGL
Weather: TS  (thunderstorm)

METAR text: SBKP 152000Z 32009KT 9999 TS VCSH BKN030 FEW040CB BKN080 26/19 Q1009
Conditions at: SBKP (CAMPINAS/VIRACOP, BR) observed 2000 UTC 15 February 2019
Temperature: 26.0°C (79°F)
Dewpoint: 19.0°C (66°F) [RH = 65%]
Pressure (altimeter): 29.79 inches Hg (1009.0 mb)
Winds: from the NW (320 degrees) at 10 MPH (9 knots; 4.6 m/s)
Visibility: 6 or more miles (10+ km)
Ceiling: 3000 feet AGL
Clouds: broken clouds at 3000 feet AGL
few clouds at 4000 feet AGL
broken clouds at 8000 feet AGL
Weather: TS VCSH  (thunderstorm, showers in vicinity)

METAR text: SBKP 151900Z 35008KT 9999 SCT040 FEW050TCU BKN080 27/19 Q1009
Conditions at: SBKP (CAMPINAS/VIRACOP, BR) observed 1900 UTC 15 February 2019
Temperature: 27.0°C (81°F)
Dewpoint: 19.0°C (66°F) [RH = 62%]
Pressure (altimeter): 29.79 inches Hg (1009.0 mb)
Winds: from the N (350 degrees) at 9 MPH (8 knots; 4.1 m/s)
Visibility: 6 or more miles (10+ km)
Ceiling: 8000 feet AGL
Clouds: scattered clouds at 4000 feet AGL
few clouds at 5000 feet AGL
broken clouds at 8000 feet AGL
Weather: no significant weather observed at this time

METAR text: SBKP 151800Z 30010KT 280V340 9999 R15///// R33///// VCSH SCT040 FEW050TCU BKN080 27/20 Q1010
Conditions at: SBKP (CAMPINAS/VIRACOP, BR) observed 1800 UTC 15 February 2019
Temperature: 27.0°C (81°F)
Dewpoint: 20.0°C (68°F) [RH = 66%]
Pressure (altimeter): 29.82 inches Hg (1010.0 mb)
Winds: from the WNW (300 degrees) at 12 MPH (10 knots; 5.1 m/s)
Visibility: 6 or more miles (10+ km)
Ceiling: 8000 feet AGL
Clouds: scattered clouds at 4000 feet AGL
few clouds at 5000 feet AGL
broken clouds at 8000 feet AGL
Weather: VCSH  (showers in vicinity)

METAR text: SBKP 151700Z 33009KT 5000 -RA BR BKN027 24/20 Q1011
Conditions at: SBKP (CAMPINAS/VIRACOP, BR) observed 1700 UTC 15 February 2019
Temperature: 24.0°C (75°F)
Dewpoint: 20.0°C (68°F) [RH = 78%]
Pressure (altimeter): 29.85 inches Hg (1011.0 mb)
Winds: from the NNW (330 degrees) at 10 MPH (9 knots; 4.6 m/s)
Visibility: 3 miles ( 5 km)
Ceiling: 2700 feet AGL
Clouds: broken clouds at 2700 feet AGL
Weather: -RA BR  (light rain, mist)

METAR text: SBKP 151600Z 34006KT 9999 BKN011 24/21 Q1012
Conditions at: SBKP (CAMPINAS/VIRACOP, BR) observed 1600 UTC 15 February 2019
Temperature: 24.0°C (75°F)
Dewpoint: 21.0°C (70°F) [RH = 83%]
Pressure (altimeter): 29.88 inches Hg (1012.0 mb)
Winds: from the NNW (340 degrees) at 7 MPH (6 knots; 3.1 m/s)
Visibility: 6 or more miles (10+ km)
Ceiling: 1100 feet AGL
Clouds: broken clouds at 1100 feet AGL
Weather: no significant weather observed at this time

METAR text: SBKP 151526Z 01008KT 9999 BKN015 23/21 Q1012
Conditions at: SBKP (CAMPINAS/VIRACOP, BR) observed 1526 UTC 15 February 2019
Temperature: 23.0°C (73°F)
Dewpoint: 21.0°C (70°F) [RH = 89%]
Pressure (altimeter): 29.88 inches Hg (1012.0 mb)
Winds: from the N (10 degrees) at 9 MPH (8 knots; 4.1 m/s)
Visibility: 6 or more miles (10+ km)
Ceiling: 1500 feet AGL
Clouds: broken clouds at 1500 feet AGL
Weather: no significant weather observed at this time

METAR text: SBKP 151500Z 35003KT 320V030 2000 -RA BR BKN013 21/20 Q1013 RER A
Conditions at: SBKP (CAMPINAS/VIRACOP, BR) observed 1500 UTC 15 February 2019
Temperature: 21.0°C (70°F)
Dewpoint: 20.0°C (68°F) [RH = 94%]
Pressure (altimeter): 29.91 inches Hg (1013.0 mb)
Winds: from the N (350 degrees) at 3 MPH (3 knots; 1.5 m/s)
Visibility: 1.24 miles (2.00 km)
Ceiling: 1300 feet AGL
Clouds: broken clouds at 1300 feet AGL
Weather: -RA BR  (light rain, mist)

METAR text: SBKP 151440Z 36005KT 310V040 0900 R15///// R33///// RA BKN013 22/20 Q1013
Conditions at: SBKP (CAMPINAS/VIRACOP, BR) observed 1440 UTC 15 February 2019
Temperature: 22.0°C (72°F)
Dewpoint: 20.0°C (68°F) [RH = 88%]
Pressure (altimeter): 29.91 inches Hg (1013.0 mb)
Winds: from the N (360 degrees) at 6 MPH (5 knots; 2.6 m/s)
Visibility: 0.56 miles (0.90 km)
Ceiling: 1300 feet AGL
Clouds: broken clouds at 1300 feet AGL
Weather: RA  (moderate rain)

METAR text: SBKP 151400Z 02010KT 9999 -RA BKN015 23/20 Q1014
Conditions at: SBKP (CAMPINAS/VIRACOP, BR) observed 1400 UTC 15 February 2019
Temperature: 23.0°C (73°F)
Dewpoint: 20.0°C (68°F) [RH = 83%]
Pressure (altimeter): 29.94 inches Hg (1014.0 mb)
Winds: from the NNE (20 degrees) at 12 MPH (10 knots; 5.1 m/s)
Visibility: 6 or more miles (10+ km)
Ceiling: 1500 feet AGL
Clouds: broken clouds at 1500 feet AGL
Weather: -RA  (light rain)

METAR text: SBKP 151300Z 02010KT 9999 SCT013 BKN021 23/19 Q1014
Conditions at: SBKP (CAMPINAS/VIRACOP, BR) observed 1300 UTC 15 February 2019
Temperature: 23.0°C (73°F)
Dewpoint: 19.0°C (66°F) [RH = 78%]
Pressure (altimeter): 29.94 inches Hg (1014.0 mb)
Winds: from the NNE (20 degrees) at 12 MPH (10 knots; 5.1 m/s)
Visibility: 6 or more miles (10+ km)
Ceiling: 2100 feet AGL
Clouds: scattered clouds at 1300 feet AGL
broken clouds at 2100 feet AGL
Weather: no significant weather observed at this time

METAR text: SBKP 151200Z 03008KT 360V070 9999 FEW013 BKN021 23/19 Q1014
Conditions at: SBKP (CAMPINAS/VIRACOP, BR) observed 1200 UTC 15 February 2019
Temperature: 23.0°C (73°F)
Dewpoint: 19.0°C (66°F) [RH = 78%]
Pressure (altimeter): 29.94 inches Hg (1014.0 mb)
Winds: from the NNE (30 degrees) at 9 MPH (8 knots; 4.1 m/s)
Visibility: 6 or more miles (10+ km)
Ceiling: 2100 feet AGL
Clouds: few clouds at 1300 feet AGL
broken clouds at 2100 feet AGL
Weather: no significant weather observed at this time

METAR text: SBKP 151100Z 01007KT 9999 BKN021 22/18 Q1015
Conditions at: SBKP (CAMPINAS/VIRACOP, BR) observed 1100 UTC 15 February 2019
Temperature: 22.0°C (72°F)
Dewpoint: 18.0°C (64°F) [RH = 78%]
Pressure (altimeter): 29.97 inches Hg (1015.0 mb)
Winds: from the N (10 degrees) at 8 MPH (7 knots; 3.6 m/s)
Visibility: 6 or more miles (10+ km)
Ceiling: 2100 feet AGL
Clouds: broken clouds at 2100 feet AGL
Weather: no significant weather observed at this time

METAR text: SBKP 151000Z VRB02KT 9999 FEW027 21/18 Q1014
Conditions at: SBKP (CAMPINAS/VIRACOP, BR) observed 1000 UTC 15 February 2019
Temperature: 21.0°C (70°F)
Dewpoint: 18.0°C (64°F) [RH = 83%]
Pressure (altimeter): 29.94 inches Hg (1014.0 mb)
Winds: variable direction winds at 2 MPH (2 knots; 1.0 m/s)
Visibility: 6 or more miles (10+ km)
Ceiling: at least 12,000 feet AGL
Clouds: few clouds at 2700 feet AGL
Weather: no significant weather observed at this time

METAR text: SBKP 150900Z 05004KT CAVOK 19/17 Q1013
Conditions at: SBKP (CAMPINAS/VIRACOP, BR) observed 0900 UTC 15 February 2019
Temperature: 19.0°C (66°F)
Dewpoint: 17.0°C (63°F) [RH = 88%]
Pressure (altimeter): 29.91 inches Hg (1013.0 mb)
Winds: from the NE (50 degrees) at 5 MPH (4 knots; 2.1 m/s)
Visibility: 6 or more miles (10+ km)
Ceiling: ceiling and visibility are OK
Clouds: unknown
Weather: no significant weather observed at this time

METAR text: SBKP 150800Z 11005KT CAVOK 19/16 Q1014
Conditions at: SBKP (CAMPINAS/VIRACOP, BR) observed 0800 UTC 15 February 2019
Temperature: 19.0°C (66°F)
Dewpoint: 16.0°C (61°F) [RH = 83%]
Pressure (altimeter): 29.94 inches Hg (1014.0 mb)
Winds: from the ESE (110 degrees) at 6 MPH (5 knots; 2.6 m/s)
Visibility: 6 or more miles (10+ km)
Ceiling: ceiling and visibility are OK
Clouds: unknown
Weather: no significant weather observed at this time

METAR text: SBKP 150700Z 11007KT CAVOK 19/17 Q1014
Conditions at: SBKP (CAMPINAS/VIRACOP, BR) observed 0700 UTC 15 February 2019
Temperature: 19.0°C (66°F)
Dewpoint: 17.0°C (63°F) [RH = 88%]
Pressure (altimeter): 29.94 inches Hg (1014.0 mb)
Winds: from the ESE (110 degrees) at 8 MPH (7 knots; 3.6 m/s)
Visibility: 6 or more miles (10+ km)
Ceiling: ceiling and visibility are OK
Clouds: unknown
Weather: no significant weather observed at this time

METAR text: SBKP 150600Z 12006KT CAVOK 19/16 Q1014
Conditions at: SBKP (CAMPINAS/VIRACOP, BR) observed 0600 UTC 15 February 2019
Temperature: 19.0°C (66°F)
Dewpoint: 16.0°C (61°F) [RH = 83%]
Pressure (altimeter): 29.94 inches Hg (1014.0 mb)
Winds: from the ESE (120 degrees) at 7 MPH (6 knots; 3.1 m/s)
Visibility: 6 or more miles (10+ km)
Ceiling: ceiling and visibility are OK
Clouds: unknown
Weather: no significant weather observed at this time

METAR text: SBKP 150500Z 12010KT 9999 FEW030 20/17 Q1015
Conditions at: SBKP (CAMPINAS/VIRACOP, BR) observed 0500 UTC 15 February 2019
Temperature: 20.0°C (68°F)
Dewpoint: 17.0°C (63°F) [RH = 83%]
Pressure (altimeter): 29.97 inches Hg (1015.0 mb)
Winds: from the ESE (120 degrees) at 12 MPH (10 knots; 5.1 m/s)
Visibility: 6 or more miles (10+ km)
Ceiling: at least 12,000 feet AGL
Clouds: few clouds at 3000 feet AGL
Weather: no significant weather observed at this time

METAR text: SBKP 150400Z 12012KT 9999 FEW045 BKN075 20/17 Q1016
Conditions at: SBKP (CAMPINAS/VIRACOP, BR) observed 0400 UTC 15 February 2019
Temperature: 20.0°C (68°F)
Dewpoint: 17.0°C (63°F) [RH = 83%]
Pressure (altimeter): 30.00 inches Hg (1016.0 mb)
Winds: from the ESE (120 degrees) at 14 MPH (12 knots; 6.2 m/s)
Visibility: 6 or more miles (10+ km)
Ceiling: 7500 feet AGL
Clouds: few clouds at 4500 feet AGL
broken clouds at 7500 feet AGL
Weather: no significant weather observed at this time

METAR text: SBKP 150300Z 12011KT 9999 SCT045 BKN070 21/17 Q1016
Conditions at: SBKP (CAMPINAS/VIRACOP, BR) observed 0300 UTC 15 February 2019
Temperature: 21.0°C (70°F)
Dewpoint: 17.0°C (63°F) [RH = 78%]
Pressure (altimeter): 30.00 inches Hg (1016.0 mb)
Winds: from the ESE (120 degrees) at 13 MPH (11 knots; 5.7 m/s)
Visibility: 6 or more miles (10+ km)
Ceiling: 7000 feet AGL
Clouds: scattered clouds at 4500 feet AGL
broken clouds at 7000 feet AGL
Weather: no significant weather observed at this time

METAR text: SBKP 150200Z 12011KT 9999 BKN045 21/17 Q1017
Conditions at: SBKP (CAMPINAS/VIRACOP, BR) observed 0200 UTC 15 February 2019
Temperature: 21.0°C (70°F)
Dewpoint: 17.0°C (63°F) [RH = 78%]
Pressure (altimeter): 30.03 inches Hg (1017.0 mb)
Winds: from the ESE (120 degrees) at 13 MPH (11 knots; 5.7 m/s)
Visibility: 6 or more miles (10+ km)
Ceiling: 4500 feet AGL
Clouds: broken clouds at 4500 feet AGL
Weather: no significant weather observed at this time

METAR text: SBKP 150100Z 13012KT CAVOK 21/16 Q1017
Conditions at: SBKP (CAMPINAS/VIRACOP, BR) observed 0100 UTC 15 February 2019
Temperature: 21.0°C (70°F)
Dewpoint: 16.0°C (61°F) [RH = 73%]
Pressure (altimeter): 30.03 inches Hg (1017.0 mb)
Winds: from the SE (130 degrees) at 14 MPH (12 knots; 6.2 m/s)
Visibility: 6 or more miles (10+ km)
Ceiling: ceiling and visibility are OK
Clouds: unknown
Weather: no significant weather observed at this time

METAR text: SBKP 150000Z 13011KT CAVOK 22/16 Q1017
Conditions at: SBKP (CAMPINAS/VIRACOP, BR) observed 0000 UTC 15 February 2019
Temperature: 22.0°C (72°F)
Dewpoint: 16.0°C (61°F) [RH = 69%]
Pressure (altimeter): 30.03 inches Hg (1017.0 mb)
Winds: from the SE (130 degrees) at 13 MPH (11 knots; 5.7 m/s)
Visibility: 6 or more miles (10+ km)
Ceiling: ceiling and visibility are OK
Clouds: unknown
Weather: no significant weather observed at this time

METAR text: SBKP 142300Z 12011KT CAVOK 22/16 Q1016
Conditions at: SBKP (CAMPINAS/VIRACOP, BR) observed 2300 UTC 14 February 2019
Temperature: 22.0°C (72°F)
Dewpoint: 16.0°C (61°F) [RH = 69%]
Pressure (altimeter): 30.00 inches Hg (1016.0 mb)
Winds: from the ESE (120 degrees) at 13 MPH (11 knots; 5.7 m/s)
Visibility: 6 or more miles (10+ km)
Ceiling: ceiling and visibility are OK
Clouds: unknown
Weather: no significant weather observed at this time

METAR text: SBKP 142200Z 13012KT CAVOK 23/17 Q1015
Conditions at: SBKP (CAMPINAS/VIRACOP, BR) observed 2200 UTC 14 February 2019
Temperature: 23.0°C (73°F)
Dewpoint: 17.0°C (63°F) [RH = 69%]
Pressure (altimeter): 29.97 inches Hg (1015.0 mb)
Winds: from the SE (130 degrees) at 14 MPH (12 knots; 6.2 m/s)
Visibility: 6 or more miles (10+ km)
Ceiling: ceiling and visibility are OK
Clouds: unknown
Weather: no significant weather observed at this time

METAR text: SBKP 142100Z 13012KT CAVOK 24/16 Q1015
Conditions at: SBKP (CAMPINAS/VIRACOP, BR) observed 2100 UTC 14 February 2019
Temperature: 24.0°C (75°F)
Dewpoint: 16.0°C (61°F) [RH = 61%]
Pressure (altimeter): 29.97 inches Hg (1015.0 mb)
Winds: from the SE (130 degrees) at 14 MPH (12 knots; 6.2 m/s)
Visibility: 6 or more miles (10+ km)
Ceiling: ceiling and visibility are OK
Clouds: unknown
Weather: no significant weather observed at this time

METAR text: SBKP 142000Z 14013KT 9999 FEW045 BKN080 25/17 Q1015
Conditions at: SBKP (CAMPINAS/VIRACOP, BR) observed 2000 UTC 14 February 2019
Temperature: 25.0°C (77°F)
Dewpoint: 17.0°C (63°F) [RH = 61%]
Pressure (altimeter): 29.97 inches Hg (1015.0 mb)
Winds: from the SE (140 degrees) at 15 MPH (13 knots; 6.7 m/s)
Visibility: 6 or more miles (10+ km)
Ceiling: 8000 feet AGL
Clouds: few clouds at 4500 feet AGL
broken clouds at 8000 feet AGL
Weather: no significant weather observed at this time

METAR text: SBKP 141900Z 13012KT 9999 FEW045 BKN100 26/17 Q1015
Conditions at: SBKP (CAMPINAS/VIRACOP, BR) observed 1900 UTC 14 February 2019
Temperature: 26.0°C (79°F)
Dewpoint: 17.0°C (63°F) [RH = 58%]
Pressure (altimeter): 29.97 inches Hg (1015.0 mb)
Winds: from the SE (130 degrees) at 14 MPH (12 knots; 6.2 m/s)
Visibility: 6 or more miles (10+ km)
Ceiling: 10000 feet AGL
Clouds: few clouds at 4500 feet AGL
broken clouds at 10000 feet AGL
Weather: no significant weather observed at this time

METAR text: SBKP 141800Z 11007KT 9999 FEW036 SCT045 26/17 Q1016
Conditions at: SBKP (CAMPINAS/VIRACOP, BR) observed 1800 UTC 14 February 2019
Temperature: 26.0°C (79°F)
Dewpoint: 17.0°C (63°F) [RH = 58%]
Pressure (altimeter): 30.00 inches Hg (1016.0 mb)
Winds: from the ESE (110 degrees) at 8 MPH (7 knots; 3.6 m/s)
Visibility: 6 or more miles (10+ km)
Ceiling: at least 12,000 feet AGL
Clouds: few clouds at 3600 feet AGL
scattered clouds at 4500 feet AGL
Weather: no significant weather observed at this time

METAR text: SBKP 141700Z 14008KT 9999 FEW037 SCT048 26/17 Q1017
Conditions at: SBKP (CAMPINAS/VIRACOP, BR) observed 1700 UTC 14 February 2019
Temperature: 26.0°C (79°F)
Dewpoint: 17.0°C (63°F) [RH = 58%]
Pressure (altimeter): 30.03 inches Hg (1017.0 mb)
Winds: from the SE (140 degrees) at 9 MPH (8 knots; 4.1 m/s)
Visibility: 6 or more miles (10+ km)
Ceiling: at least 12,000 feet AGL
Clouds: few clouds at 3700 feet AGL
scattered clouds at 4800 feet AGL
Weather: no significant weather observed at this time

METAR text: SBKP 141600Z 14012KT 9999 SCT048 25/17 Q1018
Conditions at: SBKP (CAMPINAS/VIRACOP, BR) observed 1600 UTC 14 February 2019
Temperature: 25.0°C (77°F)
Dewpoint: 17.0°C (63°F) [RH = 61%]
Pressure (altimeter): 30.06 inches Hg (1018.0 mb)
Winds: from the SE (140 degrees) at 14 MPH (12 knots; 6.2 m/s)
Visibility: 6 or more miles (10+ km)
Ceiling: at least 12,000 feet AGL
Clouds: scattered clouds at 4800 feet AGL
Weather: no significant weather observed at this time

METAR text: SBKP 141500Z 13009KT 9999 BKN048 23/17 Q1018
Conditions at: SBKP (CAMPINAS/VIRACOP, BR) observed 1500 UTC 14 February 2019
Temperature: 23.0°C (73°F)
Dewpoint: 17.0°C (63°F) [RH = 69%]
Pressure (altimeter): 30.06 inches Hg (1018.0 mb)
Winds: from the SE (130 degrees) at 10 MPH (9 knots; 4.6 m/s)
Visibility: 6 or more miles (10+ km)
Ceiling: 4800 feet AGL
Clouds: broken clouds at 4800 feet AGL
Weather: no significant weather observed at this time

METAR text: SBKP 141400Z 12012KT 080V140 9999 BKN047 23/17 Q1018
Conditions at: SBKP (CAMPINAS/VIRACOP, BR) observed 1400 UTC 14 February 2019
Temperature: 23.0°C (73°F)
Dewpoint: 17.0°C (63°F) [RH = 69%]
Pressure (altimeter): 30.06 inches Hg (1018.0 mb)
Winds: from the ESE (120 degrees) at 14 MPH (12 knots; 6.2 m/s)
Visibility: 6 or more miles (10+ km)
Ceiling: 4700 feet AGL
Clouds: broken clouds at 4700 feet AGL
Weather: no significant weather observed at this time

METAR text: SBKP 141300Z 12011KT 9999 -RA BKN047 BKN070 21/16 Q1018
Conditions at: SBKP (CAMPINAS/VIRACOP, BR) observed 1300 UTC 14 February 2019
Temperature: 21.0°C (70°F)
Dewpoint: 16.0°C (61°F) [RH = 73%]
Pressure (altimeter): 30.06 inches Hg (1018.0 mb)
Winds: from the ESE (120 degrees) at 13 MPH (11 knots; 5.7 m/s)
Visibility: 6 or more miles (10+ km)
Ceiling: 4700 feet AGL
Clouds: broken clouds at 4700 feet AGL
broken clouds at 7000 feet AGL
Weather: -RA  (light rain)

METAR text: SBKP 141200Z 12010KT 9999 SCT047 BKN070 21/16 Q1018
Conditions at: SBKP (CAMPINAS/VIRACOP, BR) observed 1200 UTC 14 February 2019
Temperature: 21.0°C (70°F)
Dewpoint: 16.0°C (61°F) [RH = 73%]
Pressure (altimeter): 30.06 inches Hg (1018.0 mb)
Winds: from the ESE (120 degrees) at 12 MPH (10 knots; 5.1 m/s)
Visibility: 6 or more miles (10+ km)
Ceiling: 7000 feet AGL
Clouds: scattered clouds at 4700 feet AGL
broken clouds at 7000 feet AGL
Weather: no significant weather observed at this time

Forecast for: SBKP (CAMPINAS/VIRACOP, BR)
Text: TAF SBKP 152109Z 1600/1624 01005KT 7000 RA BKN023 TN20/1609Z TX24/1618Z
Forecast period: 0000 to 2000 UTC 16 February 2019
Forecast type: FROM: standard forecast or significant change
Winds: from the N (10 degrees) at 6 MPH (5 knots; 2.6 m/s)
Visibility: 4 miles (7 km)
Ceiling: 2300 feet AGL
Clouds: broken clouds at 2300 feet AGL
Weather: RA  (moderate rain)
Text: TEMPO 1600/1609 34010KT 5000 TSRA BR BKN010 FEW030CB
Forecast period: 0000 to 0900 UTC 16 February 2019
Forecast type: TEMPORARY: The following changes expected for less than half the time period
Winds: from the NNW (340 degrees) at 12 MPH (10 knots; 5.1 m/s)
Visibility: 3 miles (5 km)
Ceiling: 1000 feet AGL
Clouds: broken clouds at 1000 feet AGL
few clouds at 3000 feet AGL
Weather: TSRA BR  (rain associated with thunderstorm(s), mist)
Text: PROB30 1609/1612 28010KT 3000 RA BR BKN005
Forecast period: 0900 to 1200 UTC 16 February 2019
Forecast type: PROBABLE: 30 percent likelihood of the following during this time
Winds: from the W (280 degrees) at 12 MPH (10 knots; 5.1 m/s)
Visibility: 1.86 miles (2.99 km)
Ceiling: 500 feet AGL
Clouds: broken clouds at 500 feet AGL
Weather: RA BR  (moderate rain, mist)
Text: TEMPO 1612/1620 29010KT 4000 TSRA BR BKN023 FEW030CB
Forecast period: 1200 to 2000 UTC 16 February 2019
Forecast type: TEMPORARY: The following changes expected for less than half the time period
Winds: from the WNW (290 degrees) at 12 MPH (10 knots; 5.1 m/s)
Visibility: 2.49 miles (4.01 km)
Ceiling: 2300 feet AGL
Clouds: broken clouds at 2300 feet AGL
few clouds at 3000 feet AGL
Weather: TSRA BR  (rain associated with thunderstorm(s), mist)
Text: BECMG 1620/1622 22005KT 9999 NSW BKN030 RMK PGF
Forecast period: 2000 UTC 16 February 2019 to 0000 UTC 17 February 2019
Forecast type: BECOMING: Conditions expected to become as follows by 2200 UTC 16 February 2019
Winds: from the SW (220 degrees) at 6 MPH (5 knots; 2.6 m/s)
Visibility: 6 or more miles 10+ km)
Ceiling: 3000 feet AGL
Clouds: broken clouds at 3000 feet AGL
Weather: NSW  (no significant weather)